sensor_id;sensor_type;location;lat;lon;timestamp;pressure;altitude;pressure_sealevel;temperature;humidity
48386;BME280;34644;47.964;7.982;2023-05-03T00:02:26;97295.19;;;17.86;65.82
48386;BME280;34644;47.964;7.982;2023-05-03T00:09:26;97288.78;;;17.87;65.97
48386;BME280;34644;47.964;7.982;2023-05-03T00:16:26;97290.66;;;17.87;65.89
48386;BME280;34644;47.964;7.982;2023-05-03T00:23:26;97290.94;;;17.85;66.14
48386;BME280;34644;47.964;7.982;2023-05-03T00:30:27;97279.44;;;17.85;66.18
48386;BME280;34644;47.964;7.982;2023-05-03T00:37:28;97270.38;;;17.86;66.10
48386;BME280;34644;47.964;7.982;2023-05-03T00:44:29;97277.59;;;17.85;66.18
48386;BME280;34644;47.964;7.982;2023-05-03T00:51:30;97278.91;;;17.83;66.23
48386;BME280;34644;47.964;7.982;2023-05-03T00:58:31;97262.91;;;17.83;66.26
48386;BME280;34644;47.964;7.982;2023-05-03T01:05:34;97267.19;;;17.84;66.27
48386;BME280;34644;47.964;7.982;2023-05-03T01:20:02;97261.31;;;17.82;66.48
48386;BME280;34644;47.964;7.982;2023-05-03T01:27:06;97247.19;;;17.81;66.42
48386;BME280;34644;47.964;7.982;2023-05-03T01:41:09;97254.38;;;17.81;66.66
48386;BME280;34644;47.964;7.982;2023-05-03T01:48:11;97241.84;;;17.81;66.71
48386;BME280;34644;47.964;7.982;2023-05-03T01:55:12;97243.72;;;17.81;66.72
48386;BME280;34644;47.964;7.982;2023-05-03T02:02:12;97250.91;;;17.80;66.75
48386;BME280;34644;47.964;7.982;2023-05-03T02:09:14;97249.31;;;17.79;66.81
48386;BME280;34644;47.964;7.982;2023-05-03T02:16:14;97253.84;;;17.79;66.96
48386;BME280;34644;47.964;7.982;2023-05-03T02:23:15;97246.66;;;17.79;66.87
48386;BME280;34644;47.964;7.982;2023-05-03T02:30:15;97236.25;;;17.78;67.03
48386;BME280;34644;47.964;7.982;2023-05-03T02:37:17;97221.31;;;17.77;67.04
48386;BME280;34644;47.964;7.982;2023-05-03T02:44:18;97218.13;;;17.75;67.19
48386;BME280;34644;47.964;7.982;2023-05-03T02:51:19;97219.69;;;17.76;67.18
48386;BME280;34644;47.964;7.982;2023-05-03T02:58:19;97221.31;;;17.77;67.20
48386;BME280;34644;47.964;7.982;2023-05-03T03:05:20;97219.97;;;17.74;67.20
48386;BME280;34644;47.964;7.982;2023-05-03T03:12:22;97224.50;;;17.73;67.27
48386;BME280;34644;47.964;7.982;2023-05-03T03:19:26;97224.50;;;17.73;67.38
48386;BME280;34644;47.964;7.982;2023-05-03T03:26:26;97222.91;;;17.72;67.28
48386;BME280;34644;47.964;7.982;2023-05-03T03:33:27;97230.09;;;17.72;67.29
48386;BME280;34644;47.964;7.982;2023-05-03T03:40:33;97231.16;;;17.71;67.37
48386;BME280;34644;47.964;7.982;2023-05-03T03:47:34;97237.31;;;17.71;67.30
48386;BME280;34644;47.964;7.982;2023-05-03T03:54:35;97231.16;;;17.71;67.15
48386;BME280;34644;47.964;7.982;2023-05-03T04:01:36;97234.09;;;17.69;67.35
48386;BME280;34644;47.964;7.982;2023-05-03T04:08:36;97233.81;;;17.66;67.27
48386;BME280;34644;47.964;7.982;2023-05-03T04:15:37;97236.47;;;17.66;66.97
48386;BME280;34644;47.964;7.982;2023-05-03T04:22:41;97242.06;;;17.64;66.95
48386;BME280;34644;47.964;7.982;2023-05-03T04:29:43;97236.75;;;17.64;66.73
48386;BME280;34644;47.964;7.982;2023-05-03T04:36:44;97232.50;;;17.63;66.90
48386;BME280;34644;47.964;7.982;2023-05-03T04:43:46;97235.59;;;17.34;60.06
48386;BME280;34644;47.964;7.982;2023-05-03T04:50:47;97244.06;;;17.16;58.16
48386;BME280;34644;47.964;7.982;2023-05-03T04:57:50;97250.28;;;17.37;61.44
48386;BME280;34644;47.964;7.982;2023-05-03T05:04:52;97238.81;;;17.42;62.52
48386;BME280;34644;47.964;7.982;2023-05-03T05:11:54;97245.78;;;17.43;62.95
48386;BME280;34644;47.964;7.982;2023-05-03T05:18:55;97246.56;;;17.43;63.27
48386;BME280;34644;47.964;7.982;2023-05-03T05:25:59;97250.28;;;17.42;63.47
48386;BME280;34644;47.964;7.982;2023-05-03T05:33:02;97249.50;;;17.42;63.66
48386;BME280;34644;47.964;7.982;2023-05-03T05:40:03;97262.00;;;17.41;63.89
48386;BME280;34644;47.964;7.982;2023-05-03T05:47:09;97254.81;;;17.42;64.10
48386;BME280;34644;47.964;7.982;2023-05-03T05:54:10;97254.03;;;17.41;64.14
48386;BME280;34644;47.964;7.982;2023-05-03T06:01:11;97254.81;;;17.42;64.24
48386;BME280;34644;47.964;7.982;2023-05-03T06:08:12;97244.16;;;17.42;64.35
48386;BME280;34644;47.964;7.982;2023-05-03T06:15:13;97242.53;;;17.41;64.46
48386;BME280;34644;47.964;7.982;2023-05-03T06:22:16;97238.81;;;17.42;64.43
48386;BME280;34644;47.964;7.982;2023-05-03T06:29:17;97231.63;;;17.42;64.44
48386;BME280;34644;47.964;7.982;2023-05-03T06:36:20;97232.44;;;17.43;64.50
48386;BME280;34644;47.964;7.982;2023-05-03T06:43:21;97236.69;;;17.44;64.54
48386;BME280;34644;47.964;7.982;2023-05-03T06:50:34;97231.38;;;17.44;64.63
48386;BME280;34644;47.964;7.982;2023-05-03T06:57:34;97225.78;;;17.45;64.74
48386;BME280;34644;47.964;7.982;2023-05-03T07:04:35;97218.59;;;17.46;64.82
48386;BME280;34644;47.964;7.982;2023-05-03T07:11:37;97208.72;;;17.46;64.84
48386;BME280;34644;47.964;7.982;2023-05-03T07:18:39;97188.22;;;17.47;64.82
48386;BME280;34644;47.964;7.982;2023-05-03T07:25:40;97184.50;;;17.48;64.75
48386;BME280;34644;47.964;7.982;2023-05-03T07:32:40;97170.09;;;17.49;64.75
48386;BME280;34644;47.964;7.982;2023-05-03T07:39:41;97167.97;;;17.51;64.78
48386;BME280;34644;47.964;7.982;2023-05-03T07:46:41;97169.56;;;17.52;64.75
48386;BME280;34644;47.964;7.982;2023-05-03T07:53:41;97165.03;;;17.52;64.77
48386;BME280;34644;47.964;7.982;2023-05-03T08:00:42;97164.78;;;17.54;64.76
48386;BME280;34644;47.964;7.982;2023-05-03T08:07:42;97165.56;;;17.54;64.75
48386;BME280;34644;47.964;7.982;2023-05-03T08:14:43;97175.97;;;17.56;64.77
48386;BME280;34644;47.964;7.982;2023-05-03T08:21:44;97181.03;;;17.58;64.86
48386;BME280;34644;47.964;7.982;2023-05-03T08:28:46;97187.72;;;17.60;64.60
48386;BME280;34644;47.964;7.982;2023-05-03T08:35:47;97176.53;;;17.63;64.52
48386;BME280;34644;47.964;7.982;2023-05-03T08:42:47;97172.50;;;17.66;64.32
48386;BME280;34644;47.964;7.982;2023-05-03T08:49:49;97176.78;;;17.67;64.39
48386;BME280;34644;47.964;7.982;2023-05-03T08:56:51;97173.59;;;17.70;64.46
48386;BME280;34644;47.964;7.982;2023-05-03T09:03:52;97184.53;;;17.73;64.38
48386;BME280;34644;47.964;7.982;2023-05-03T09:10:52;97187.19;;;17.73;64.67
48386;BME280;34644;47.964;7.982;2023-05-03T09:18:05;97187.97;;;17.74;64.82
48386;BME280;34644;47.964;7.982;2023-05-03T09:25:05;97188.00;;;17.79;64.38
48386;BME280;34644;47.964;7.982;2023-05-03T09:32:06;97181.88;;;17.84;64.61
48386;BME280;34644;47.964;7.982;2023-05-03T09:39:14;97184.00;;;17.87;64.67
48386;BME280;34644;47.964;7.982;2023-05-03T09:46:15;97162.69;;;17.92;64.79
48386;BME280;34644;47.964;7.982;2023-05-03T09:53:15;97168.28;;;17.96;64.86
48386;BME280;34644;47.964;7.982;2023-05-03T10:00:18;97161.63;;;17.98;64.80
48386;BME280;34644;47.964;7.982;2023-05-03T10:07:19;97162.69;;;18.02;64.81
48386;BME280;34644;47.964;7.982;2023-05-03T10:14:21;97158.44;;;18.06;64.83
48386;BME280;34644;47.964;7.982;2023-05-03T10:21:28;97149.38;;;18.07;64.83
48386;BME280;34644;47.964;7.982;2023-05-03T10:28:32;97158.41;;;18.12;64.78
48386;BME280;34644;47.964;7.982;2023-05-03T10:35:33;97149.88;;;18.15;64.59
48386;BME280;34644;47.964;7.982;2023-05-03T10:42:35;97140.53;;;18.17;64.86
48386;BME280;34644;47.964;7.982;2023-05-03T10:49:35;97127.94;;;18.49;56.81
48386;BME280;34644;47.964;7.982;2023-05-03T10:56:48;97126.34;;;18.48;57.71
48386;BME280;34644;47.964;7.982;2023-05-03T11:04:06;97127.47;;;18.31;60.98
48386;BME280;34644;47.964;7.982;2023-05-03T11:11:07;97112.47;;;18.35;61.05
48386;BME280;34644;47.964;7.982;2023-05-03T11:18:09;97106.59;;;18.38;62.35
48386;BME280;34644;47.964;7.982;2023-05-03T11:25:11;97094.84;;;18.44;61.41
48386;BME280;34644;47.964;7.982;2023-05-03T11:32:11;97093.25;;;18.43;62.19
48386;BME280;34644;47.964;7.982;2023-05-03T11:39:12;97094.06;;;18.44;62.66
48386;BME280;34644;47.964;7.982;2023-05-03T11:46:16;97091.91;;;18.46;62.70
48386;BME280;34644;47.964;7.982;2023-05-03T11:53:18;97091.38;;;18.49;62.74
48386;BME280;34644;47.964;7.982;2023-05-03T12:00:18;97094.28;;;18.53;62.84
48386;BME280;34644;47.964;7.982;2023-05-03T12:07:21;97084.41;;;18.53;62.92
48386;BME280;34644;47.964;7.982;2023-05-03T12:14:21;97076.66;;;18.57;62.97
48386;BME280;34644;47.964;7.982;2023-05-03T12:21:22;97078.78;;;18.60;63.09
48386;BME280;34644;47.964;7.982;2023-05-03T12:28:23;97075.03;;;18.61;62.87
48386;BME280;34644;47.964;7.982;2023-05-03T12:35:24;97074.22;;;18.66;62.81
48386;BME280;34644;47.964;7.982;2023-05-03T12:42:25;97073.41;;;18.65;63.14
48386;BME280;34644;47.964;7.982;2023-05-03T12:49:26;97067.53;;;18.68;63.22
48386;BME280;34644;47.964;7.982;2023-05-03T12:56:29;97044.28;;;18.74;63.02
48386;BME280;34644;47.964;7.982;2023-05-03T13:03:29;97038.09;;;18.78;62.90
48386;BME280;34644;47.964;7.982;2023-05-03T13:10:30;97033.03;;;18.77;63.03
48386;BME280;34644;47.964;7.982;2023-05-03T13:17:31;97027.41;;;18.78;63.20
48386;BME280;34644;47.964;7.982;2023-05-03T13:24:32;97024.47;;;18.80;63.02
48386;BME280;34644;47.964;7.982;2023-05-03T13:31:32;97012.72;;;18.81;63.27
48386;BME280;34644;47.964;7.982;2023-05-03T13:38:33;96986.81;;;18.81;63.19
48386;BME280;34644;47.964;7.982;2023-05-03T13:45:33;96991.63;;;18.85;62.94
48386;BME280;34644;47.964;7.982;2023-05-03T13:52:34;96987.91;;;18.86;63.15
48386;BME280;34644;47.964;7.982;2023-05-03T13:59:35;96970.00;;;18.86;62.91
48386;BME280;34644;47.964;7.982;2023-05-03T14:06:36;96972.38;;;18.88;63.22
48386;BME280;34644;47.964;7.982;2023-05-03T14:13:36;96972.66;;;18.86;63.24
48386;BME280;34644;47.964;7.982;2023-05-03T14:20:36;96958.75;;;18.89;63.14
48386;BME280;34644;47.964;7.982;2023-05-03T14:27:37;96962.25;;;18.90;63.23
48386;BME280;34644;47.964;7.982;2023-05-03T14:34:37;96944.84;;;18.92;63.29
48386;BME280;34644;47.964;7.982;2023-05-03T14:41:38;96947.19;;;18.99;63.24
48386;BME280;34644;47.964;7.982;2023-05-03T14:48:38;96944.81;;;18.97;63.10
48386;BME280;34644;47.964;7.982;2023-05-03T14:55:38;96950.41;;;18.96;63.18
48386;BME280;34644;47.964;7.982;2023-05-03T15:02:39;96952.03;;;18.97;63.58
48386;BME280;34644;47.964;7.982;2023-05-03T15:09:40;96951.97;;;19.02;63.82
48386;BME280;34644;47.964;7.982;2023-05-03T15:16:42;96944.53;;;18.99;63.86
48386;BME280;34644;47.964;7.982;2023-05-03T15:23:43;96952.53;;;18.99;64.34
48386;BME280;34644;47.964;7.982;2023-05-03T15:30:44;96946.69;;;18.97;64.07
48386;BME280;34644;47.964;7.982;2023-05-03T15:37:44;96941.34;;;18.97;64.04
48386;BME280;34644;47.964;7.982;2023-05-03T15:44:44;96953.63;;;18.98;64.00
48386;BME280;34644;47.964;7.982;2023-05-03T15:51:46;96955.19;;;18.99;64.17
48386;BME280;34644;47.964;7.982;2023-05-03T15:58:46;96957.88;;;18.99;63.93
48386;BME280;34644;47.964;7.982;2023-05-03T16:05:46;96955.19;;;18.99;63.97
48386;BME280;34644;47.964;7.982;2023-05-03T16:12:47;96953.81;;;19.07;62.51
48386;BME280;34644;47.964;7.982;2023-05-03T16:19:47;96957.59;;;19.01;63.51
48386;BME280;34644;47.964;7.982;2023-05-03T16:26:47;96956.03;;;19.00;63.78
48386;BME280;34644;47.964;7.982;2023-05-03T16:33:49;96949.06;;;18.98;63.92
48386;BME280;34644;47.964;7.982;2023-05-03T16:40:49;96935.50;;;18.95;63.88
48386;BME280;34644;47.964;7.982;2023-05-03T16:47:50;96936.00;;;18.97;63.90
48386;BME280;34644;47.964;7.982;2023-05-03T16:54:50;96931.22;;;18.94;63.63
48386;BME280;34644;47.964;7.982;2023-05-03T17:01:51;96931.22;;;18.94;63.52
48386;BME280;34644;47.964;7.982;2023-05-03T17:08:51;96941.09;;;18.93;63.78
48386;BME280;34644;47.964;7.982;2023-05-03T17:15:52;96951.00;;;18.93;63.73
48386;BME280;34644;47.964;7.982;2023-05-03T17:22:53;96937.09;;;18.91;63.83
48386;BME280;34644;47.964;7.982;2023-05-03T17:29:53;96942.44;;;18.91;63.86
48386;BME280;34644;47.964;7.982;2023-05-03T17:36:57;96952.63;;;18.89;63.64
48386;BME280;34644;47.964;7.982;2023-05-03T17:43:57;96960.63;;;18.89;63.78
48386;BME280;34644;47.964;7.982;2023-05-03T17:50:57;96963.38;;;18.73;58.93
48386;BME280;34644;47.964;7.982;2023-05-03T17:57:58;96971.94;;;18.70;58.45
48386;BME280;34644;47.964;7.982;2023-05-03T18:04:58;96975.94;;;18.73;59.51
48386;BME280;34644;47.964;7.982;2023-05-03T18:11:59;96986.88;;;18.71;60.81
48386;BME280;34644;47.964;7.982;2023-05-03T18:19:00;96992.78;;;18.68;61.45
48386;BME280;34644;47.964;7.982;2023-05-03T18:26:01;96998.66;;;18.65;62.20
48386;BME280;34644;47.964;7.982;2023-05-03T18:33:01;96991.72;;;18.64;62.21
48386;BME280;34644;47.964;7.982;2023-05-03T18:40:01;97005.34;;;18.62;62.71
48386;BME280;34644;47.964;7.982;2023-05-03T18:47:02;96997.63;;;18.61;62.78
48386;BME280;34644;47.964;7.982;2023-05-03T18:54:02;97009.38;;;18.60;63.04
48386;BME280;34644;47.964;7.982;2023-05-03T19:01:02;97008.84;;;18.58;63.06
48386;BME280;34644;47.964;7.982;2023-05-03T19:08:04;97015.28;;;18.57;63.48
48386;BME280;34644;47.964;7.982;2023-05-03T19:15:04;97018.22;;;18.55;63.40
48386;BME280;34644;47.964;7.982;2023-05-03T19:22:05;97025.41;;;18.55;63.62
48386;BME280;34644;47.964;7.982;2023-05-03T19:29:05;97024.63;;;18.54;63.79
48386;BME280;34644;47.964;7.982;2023-05-03T19:36:11;97023.81;;;18.54;63.74
48386;BME280;34644;47.964;7.982;2023-05-03T19:43:11;97032.09;;;18.52;63.88
48386;BME280;34644;47.964;7.982;2023-05-03T19:50:11;97032.09;;;18.52;63.87
48386;BME280;34644;47.964;7.982;2023-05-03T19:57:12;97044.94;;;18.50;63.74
48386;BME280;34644;47.964;7.982;2023-05-03T20:04:12;97050.28;;;18.50;63.88
48386;BME280;34644;47.964;7.982;2023-05-03T20:11:12;97046.00;;;18.49;63.86
48386;BME280;34644;47.964;7.982;2023-05-03T20:18:13;97047.88;;;18.49;63.95
48386;BME280;34644;47.964;7.982;2023-05-03T20:25:13;97045.47;;;18.47;63.93
48386;BME280;34644;47.964;7.982;2023-05-03T20:32:14;97039.31;;;18.47;63.90
48386;BME280;34644;47.964;7.982;2023-05-03T20:39:14;97043.09;;;18.46;63.80
48386;BME280;34644;47.964;7.982;2023-05-03T20:46:15;97027.06;;;18.46;63.86
48386;BME280;34644;47.964;7.982;2023-05-03T20:53:16;97020.91;;;18.45;64.04
48386;BME280;34644;47.964;7.982;2023-05-03T21:00:16;97036.66;;;18.47;64.04
48386;BME280;34644;47.964;7.982;2023-05-03T21:07:16;97023.31;;;18.47;63.94
48386;BME280;34644;47.964;7.982;2023-05-03T21:14:17;97034.00;;;18.47;64.39
48386;BME280;34644;47.964;7.982;2023-05-03T21:21:17;97030.81;;;18.44;64.51
48386;BME280;34644;47.964;7.982;2023-05-03T21:28:17;97008.66;;;18.44;64.42
48386;BME280;34644;47.964;7.982;2023-05-03T21:35:18;97015.06;;;18.43;64.71
48386;BME280;34644;47.964;7.982;2023-05-03T21:42:19;97021.72;;;18.46;65.02
48386;BME280;34644;47.964;7.982;2023-05-03T21:49:19;97009.44;;;18.44;65.14
48386;BME280;34644;47.964;7.982;2023-05-03T21:56:19;97002.50;;;18.43;65.42
48386;BME280;34644;47.964;7.982;2023-05-03T22:03:19;97002.50;;;18.43;65.56
48386;BME280;34644;47.964;7.982;2023-05-03T22:10:20;96990.25;;;18.42;65.42
48386;BME280;34644;47.964;7.982;2023-05-03T22:17:20;96984.09;;;18.42;65.68
48386;BME280;34644;47.964;7.982;2023-05-03T22:24:20;96980.66;;;18.41;65.84
48386;BME280;34644;47.964;7.982;2023-05-03T22:31:21;96981.44;;;18.42;65.96
48386;BME280;34644;47.964;7.982;2023-05-03T22:38:21;96975.31;;;18.41;65.97
48386;BME280;34644;47.964;7.982;2023-05-03T22:45:22;96977.19;;;18.41;66.06
48386;BME280;34644;47.964;7.982;2023-05-03T22:52:22;96981.72;;;18.40;66.02
48386;BME280;34644;47.964;7.982;2023-05-03T22:59:22;96979.03;;;18.40;66.21
48386;BME280;34644;47.964;7.982;2023-05-03T23:06:23;96990.53;;;18.41;66.21
48386;BME280;34644;47.964;7.982;2023-05-03T23:13:24;96975.59;;;18.40;66.25
48386;BME280;34644;47.964;7.982;2023-05-03T23:20:24;96973.19;;;18.38;66.55
48386;BME280;34644;47.964;7.982;2023-05-03T23:27:25;96973.97;;;18.39;66.71
48386;BME280;34644;47.964;7.982;2023-05-03T23:34:25;96973.19;;;18.38;66.80
48386;BME280;34644;47.964;7.982;2023-05-03T23:41:26;96960.91;;;18.37;66.86
48386;BME280;34644;47.964;7.982;2023-05-03T23:48:26;96962.78;;;18.37;66.92
48386;BME280;34644;47.964;7.982;2023-05-03T23:55:26;96955.56;;;18.37;66.85
